sensor_id;sensor_type;location;lat;lon;timestamp;P1;durP1;ratioP1;P2;durP2;ratioP2
82938;SDS011;72714;52.744;4.900;2023-09-18T00:01:07;51.90;;;32.63;;
82938;SDS011;72714;52.744;4.900;2023-09-18T00:03:33;56.92;;;35.33;;
82938;SDS011;72714;52.744;4.900;2023-09-18T00:05:59;55.00;;;33.33;;
82938;SDS011;72714;52.744;4.900;2023-09-18T00:08:24;52.23;;;32.30;;
82938;SDS011;72714;52.744;4.900;2023-09-18T00:10:54;51.10;;;33.55;;
82938;SDS011;72714;52.744;4.900;2023-09-18T00:13:19;51.73;;;32.20;;
82938;SDS011;72714;52.744;4.900;2023-09-18T00:15:45;47.97;;;31.02;;
82938;SDS011;72714;52.744;4.900;2023-09-18T00:18:13;48.85;;;32.03;;
82938;SDS011;72714;52.744;4.900;2023-09-18T00:20:39;47.92;;;31.63;;
82938;SDS011;72714;52.744;4.900;2023-09-18T00:23:06;47.10;;;30.95;;
82938;SDS011;72714;52.744;4.900;2023-09-18T00:25:32;50.50;;;32.28;;
82938;SDS011;72714;52.744;4.900;2023-09-18T00:27:58;46.57;;;30.57;;
82938;SDS011;72714;52.744;4.900;2023-09-18T00:30:23;48.17;;;30.87;;
82938;SDS011;72714;52.744;4.900;2023-09-18T00:32:49;50.43;;;32.73;;
82938;SDS011;72714;52.744;4.900;2023-09-18T00:35:15;46.03;;;31.60;;
82938;SDS011;72714;52.744;4.900;2023-09-18T00:37:41;47.97;;;30.65;;
82938;SDS011;72714;52.744;4.900;2023-09-18T00:40:08;47.77;;;30.57;;
82938;SDS011;72714;52.744;4.900;2023-09-18T00:42:34;45.00;;;29.17;;
82938;SDS011;72714;52.744;4.900;2023-09-18T00:44:59;47.97;;;31.17;;
82938;SDS011;72714;52.744;4.900;2023-09-18T00:47:25;48.03;;;31.00;;
82938;SDS011;72714;52.744;4.900;2023-09-18T00:49:50;44.53;;;30.60;;
82938;SDS011;72714;52.744;4.900;2023-09-18T00:52:16;36.92;;;25.95;;
82938;SDS011;72714;52.744;4.900;2023-09-18T00:54:42;42.88;;;28.80;;
82938;SDS011;72714;52.744;4.900;2023-09-18T00:57:08;46.87;;;30.80;;
82938;SDS011;72714;52.744;4.900;2023-09-18T00:59:35;42.87;;;29.97;;
82938;SDS011;72714;52.744;4.900;2023-09-18T01:02:02;38.58;;;26.63;;
82938;SDS011;72714;52.744;4.900;2023-09-18T01:04:27;41.37;;;28.37;;
82938;SDS011;72714;52.744;4.900;2023-09-18T01:06:53;36.75;;;26.20;;
82938;SDS011;72714;52.744;4.900;2023-09-18T01:09:21;35.60;;;25.87;;
82938;SDS011;72714;52.744;4.900;2023-09-18T01:17:05;40.42;;;28.13;;
82938;SDS011;72714;52.744;4.900;2023-09-18T01:19:40;42.35;;;29.25;;
82938;SDS011;72714;52.744;4.900;2023-09-18T01:22:07;40.83;;;28.90;;
82938;SDS011;72714;52.744;4.900;2023-09-18T01:24:34;39.20;;;27.55;;
82938;SDS011;72714;52.744;4.900;2023-09-18T01:27:00;34.08;;;24.98;;
82938;SDS011;72714;52.744;4.900;2023-09-18T01:29:25;36.83;;;26.17;;
82938;SDS011;72714;52.744;4.900;2023-09-18T01:31:51;33.17;;;24.57;;
82938;SDS011;72714;52.744;4.900;2023-09-18T01:34:21;34.47;;;26.02;;
82938;SDS011;72714;52.744;4.900;2023-09-18T01:36:48;34.92;;;25.50;;
82938;SDS011;72714;52.744;4.900;2023-09-18T01:39:14;31.98;;;24.08;;
82938;SDS011;72714;52.744;4.900;2023-09-18T01:41:41;32.45;;;24.23;;
82938;SDS011;72714;52.744;4.900;2023-09-18T01:44:06;32.50;;;24.73;;
82938;SDS011;72714;52.744;4.900;2023-09-18T01:46:32;28.13;;;21.40;;
82938;SDS011;72714;52.744;4.900;2023-09-18T01:49:01;30.58;;;23.58;;
82938;SDS011;72714;52.744;4.900;2023-09-18T01:51:28;27.50;;;21.08;;
82938;SDS011;72714;52.744;4.900;2023-09-18T01:53:54;31.98;;;24.38;;
82938;SDS011;72714;52.744;4.900;2023-09-18T01:56:20;25.73;;;20.43;;
82938;SDS011;72714;52.744;4.900;2023-09-18T01:58:46;30.07;;;23.63;;
82938;SDS011;72714;52.744;4.900;2023-09-18T02:01:11;32.47;;;24.07;;
82938;SDS011;72714;52.744;4.900;2023-09-18T02:03:37;26.47;;;21.00;;
82938;SDS011;72714;52.744;4.900;2023-09-18T02:06:09;25.67;;;19.65;;
82938;SDS011;72714;52.744;4.900;2023-09-18T02:08:35;29.00;;;22.67;;
82938;SDS011;72714;52.744;4.900;2023-09-18T02:11:00;24.35;;;19.80;;
82938;SDS011;72714;52.744;4.900;2023-09-18T02:13:28;25.63;;;21.02;;
82938;SDS011;72714;52.744;4.900;2023-09-18T02:15:54;26.20;;;21.63;;
82938;SDS011;72714;52.744;4.900;2023-09-18T02:18:20;23.58;;;18.58;;
82938;SDS011;72714;52.744;4.900;2023-09-18T02:20:45;23.00;;;20.07;;
82938;SDS011;72714;52.744;4.900;2023-09-18T02:23:14;24.40;;;19.63;;
82938;SDS011;72714;52.744;4.900;2023-09-18T02:25:43;25.10;;;20.08;;
82938;SDS011;72714;52.744;4.900;2023-09-18T02:28:09;23.33;;;19.00;;
82938;SDS011;72714;52.744;4.900;2023-09-18T02:30:34;27.47;;;20.97;;
82938;SDS011;72714;52.744;4.900;2023-09-18T02:33:00;22.13;;;18.27;;
82938;SDS011;72714;52.744;4.900;2023-09-18T02:35:28;22.17;;;18.27;;
82938;SDS011;72714;52.744;4.900;2023-09-18T02:37:54;22.40;;;19.70;;
82938;SDS011;72714;52.744;4.900;2023-09-18T02:40:19;27.40;;;22.53;;
82938;SDS011;72714;52.744;4.900;2023-09-18T02:42:45;23.90;;;19.67;;
82938;SDS011;72714;52.744;4.900;2023-09-18T02:45:10;24.27;;;20.97;;
82938;SDS011;72714;52.744;4.900;2023-09-18T02:47:35;21.80;;;17.60;;
82938;SDS011;72714;52.744;4.900;2023-09-18T02:50:04;21.83;;;18.50;;
82938;SDS011;72714;52.744;4.900;2023-09-18T02:52:30;24.20;;;20.33;;
82938;SDS011;72714;52.744;4.900;2023-09-18T02:54:56;22.23;;;19.80;;
82938;SDS011;72714;52.744;4.900;2023-09-18T02:57:22;24.83;;;21.13;;
82938;SDS011;72714;52.744;4.900;2023-09-18T02:59:47;23.63;;;20.73;;
82938;SDS011;72714;52.744;4.900;2023-09-18T03:02:13;23.75;;;18.38;;
82938;SDS011;72714;52.744;4.900;2023-09-18T03:04:38;23.00;;;19.27;;
82938;SDS011;72714;52.744;4.900;2023-09-18T03:07:04;20.53;;;17.07;;
82938;SDS011;72714;52.744;4.900;2023-09-18T03:09:30;19.42;;;16.80;;
82938;SDS011;72714;52.744;4.900;2023-09-18T03:11:56;23.50;;;19.33;;
82938;SDS011;72714;52.744;4.900;2023-09-18T03:14:21;19.97;;;16.53;;
82938;SDS011;72714;52.744;4.900;2023-09-18T03:16:47;20.13;;;16.83;;
82938;SDS011;72714;52.744;4.900;2023-09-18T03:19:12;19.13;;;15.85;;
82938;SDS011;72714;52.744;4.900;2023-09-18T03:21:38;21.37;;;18.90;;
82938;SDS011;72714;52.744;4.900;2023-09-18T03:24:04;19.75;;;17.23;;
82938;SDS011;72714;52.744;4.900;2023-09-18T03:26:30;19.00;;;16.60;;
82938;SDS011;72714;52.744;4.900;2023-09-18T03:28:55;20.23;;;17.08;;
82938;SDS011;72714;52.744;4.900;2023-09-18T03:31:21;22.63;;;18.80;;
82938;SDS011;72714;52.744;4.900;2023-09-18T03:33:46;19.93;;;17.33;;
82938;SDS011;72714;52.744;4.900;2023-09-18T03:36:12;20.33;;;17.95;;
82938;SDS011;72714;52.744;4.900;2023-09-18T03:38:38;20.17;;;17.98;;
82938;SDS011;72714;52.744;4.900;2023-09-18T03:41:06;21.05;;;17.52;;
82938;SDS011;72714;52.744;4.900;2023-09-18T03:43:31;22.43;;;18.77;;
82938;SDS011;72714;52.744;4.900;2023-09-18T03:46:04;22.52;;;19.00;;
82938;SDS011;72714;52.744;4.900;2023-09-18T03:48:32;20.95;;;18.13;;
82938;SDS011;72714;52.744;4.900;2023-09-18T03:51:05;20.42;;;17.83;;
82938;SDS011;72714;52.744;4.900;2023-09-18T03:53:32;21.15;;;18.17;;
82938;SDS011;72714;52.744;4.900;2023-09-18T03:55:58;22.57;;;19.10;;
82938;SDS011;72714;52.744;4.900;2023-09-18T03:58:24;22.63;;;19.13;;
82938;SDS011;72714;52.744;4.900;2023-09-18T04:00:49;22.33;;;19.00;;
82938;SDS011;72714;52.744;4.900;2023-09-18T04:03:16;20.58;;;17.40;;
82938;SDS011;72714;52.744;4.900;2023-09-18T04:05:42;21.65;;;18.20;;
82938;SDS011;72714;52.744;4.900;2023-09-18T04:08:07;20.73;;;17.88;;
82938;SDS011;72714;52.744;4.900;2023-09-18T04:10:32;21.60;;;17.80;;
82938;SDS011;72714;52.744;4.900;2023-09-18T04:12:58;21.20;;;18.00;;
82938;SDS011;72714;52.744;4.900;2023-09-18T04:15:23;20.95;;;17.10;;
82938;SDS011;72714;52.744;4.900;2023-09-18T04:17:50;20.08;;;16.88;;
82938;SDS011;72714;52.744;4.900;2023-09-18T04:20:16;21.63;;;17.17;;
82938;SDS011;72714;52.744;4.900;2023-09-18T04:22:45;22.43;;;18.07;;
82938;SDS011;72714;52.744;4.900;2023-09-18T04:25:15;21.33;;;16.52;;
82938;SDS011;72714;52.744;4.900;2023-09-18T04:27:41;21.25;;;16.65;;
82938;SDS011;72714;52.744;4.900;2023-09-18T04:30:07;21.23;;;17.70;;
82938;SDS011;72714;52.744;4.900;2023-09-18T04:32:35;18.75;;;16.48;;
82938;SDS011;72714;52.744;4.900;2023-09-18T04:35:05;24.05;;;17.90;;
82938;SDS011;72714;52.744;4.900;2023-09-18T04:37:35;23.90;;;18.65;;
82938;SDS011;72714;52.744;4.900;2023-09-18T04:40:01;22.45;;;18.05;;
82938;SDS011;72714;52.744;4.900;2023-09-18T04:42:26;22.58;;;19.45;;
82938;SDS011;72714;52.744;4.900;2023-09-18T04:44:53;24.40;;;19.77;;
82938;SDS011;72714;52.744;4.900;2023-09-18T04:47:19;25.05;;;20.58;;
82938;SDS011;72714;52.744;4.900;2023-09-18T04:49:44;23.03;;;19.43;;
82938;SDS011;72714;52.744;4.900;2023-09-18T04:52:12;25.58;;;20.67;;
82938;SDS011;72714;52.744;4.900;2023-09-18T04:54:38;25.83;;;18.77;;
82938;SDS011;72714;52.744;4.900;2023-09-18T04:57:04;21.73;;;16.48;;
82938;SDS011;72714;52.744;4.900;2023-09-18T04:59:30;20.60;;;14.97;;
82938;SDS011;72714;52.744;4.900;2023-09-18T05:01:56;16.95;;;13.07;;
82938;SDS011;72714;52.744;4.900;2023-09-18T05:04:22;13.83;;;9.87;;
82938;SDS011;72714;52.744;4.900;2023-09-18T05:06:47;12.57;;;9.17;;
82938;SDS011;72714;52.744;4.900;2023-09-18T05:09:13;10.77;;;8.00;;
82938;SDS011;72714;52.744;4.900;2023-09-18T05:11:39;10.67;;;6.20;;
82938;SDS011;72714;52.744;4.900;2023-09-18T05:14:07;6.70;;;4.60;;
82938;SDS011;72714;52.744;4.900;2023-09-18T05:16:32;7.75;;;5.05;;
82938;SDS011;72714;52.744;4.900;2023-09-18T05:18:58;7.30;;;4.20;;
82938;SDS011;72714;52.744;4.900;2023-09-18T05:21:24;7.13;;;4.68;;
82938;SDS011;72714;52.744;4.900;2023-09-18T05:23:52;7.40;;;4.78;;
82938;SDS011;72714;52.744;4.900;2023-09-18T05:26:18;7.95;;;4.97;;
82938;SDS011;72714;52.744;4.900;2023-09-18T05:28:44;8.05;;;5.18;;
82938;SDS011;72714;52.744;4.900;2023-09-18T05:31:09;8.00;;;4.60;;
82938;SDS011;72714;52.744;4.900;2023-09-18T05:33:35;8.00;;;5.03;;
82938;SDS011;72714;52.744;4.900;2023-09-18T05:36:00;8.80;;;5.13;;
82938;SDS011;72714;52.744;4.900;2023-09-18T05:38:26;7.27;;;4.23;;
82938;SDS011;72714;52.744;4.900;2023-09-18T05:40:51;6.97;;;4.70;;
82938;SDS011;72714;52.744;4.900;2023-09-18T05:43:17;6.90;;;4.57;;
82938;SDS011;72714;52.744;4.900;2023-09-18T05:45:43;8.35;;;5.25;;
82938;SDS011;72714;52.744;4.900;2023-09-18T05:48:08;8.75;;;5.80;;
82938;SDS011;72714;52.744;4.900;2023-09-18T05:50:34;7.60;;;5.13;;
82938;SDS011;72714;52.744;4.900;2023-09-18T05:53:01;7.68;;;5.40;;
82938;SDS011;72714;52.744;4.900;2023-09-18T05:55:32;8.90;;;5.90;;
82938;SDS011;72714;52.744;4.900;2023-09-18T05:57:58;10.43;;;6.20;;
82938;SDS011;72714;52.744;4.900;2023-09-18T06:00:24;14.90;;;10.77;;
82938;SDS011;72714;52.744;4.900;2023-09-18T06:02:50;10.23;;;7.95;;
82938;SDS011;72714;52.744;4.900;2023-09-18T06:05:16;15.03;;;12.03;;
82938;SDS011;72714;52.744;4.900;2023-09-18T06:07:42;14.77;;;10.52;;
82938;SDS011;72714;52.744;4.900;2023-09-18T06:10:08;17.53;;;12.97;;
82938;SDS011;72714;52.744;4.900;2023-09-18T06:12:34;17.23;;;12.60;;
82938;SDS011;72714;52.744;4.900;2023-09-18T06:14:59;15.40;;;10.07;;
82938;SDS011;72714;52.744;4.900;2023-09-18T06:17:25;16.27;;;10.93;;
82938;SDS011;72714;52.744;4.900;2023-09-18T06:19:50;12.38;;;7.80;;
82938;SDS011;72714;52.744;4.900;2023-09-18T06:22:17;10.90;;;6.40;;
82938;SDS011;72714;52.744;4.900;2023-09-18T06:24:42;10.80;;;6.30;;
82938;SDS011;72714;52.744;4.900;2023-09-18T06:27:08;8.03;;;5.80;;
82938;SDS011;72714;52.744;4.900;2023-09-18T06:29:34;10.88;;;5.60;;
82938;SDS011;72714;52.744;4.900;2023-09-18T06:31:59;9.00;;;4.70;;
82938;SDS011;72714;52.744;4.900;2023-09-18T06:34:25;9.77;;;5.30;;
82938;SDS011;72714;52.744;4.900;2023-09-18T06:36:51;6.60;;;4.25;;
82938;SDS011;72714;52.744;4.900;2023-09-18T06:39:16;8.32;;;4.82;;
82938;SDS011;72714;52.744;4.900;2023-09-18T06:41:42;9.83;;;4.83;;
82938;SDS011;72714;52.744;4.900;2023-09-18T06:44:11;7.77;;;4.70;;
82938;SDS011;72714;52.744;4.900;2023-09-18T06:46:36;9.37;;;4.63;;
82938;SDS011;72714;52.744;4.900;2023-09-18T06:49:02;10.55;;;5.15;;
82938;SDS011;72714;52.744;4.900;2023-09-18T06:51:28;9.93;;;5.13;;
82938;SDS011;72714;52.744;4.900;2023-09-18T06:53:54;9.23;;;4.90;;
82938;SDS011;72714;52.744;4.900;2023-09-18T06:56:20;8.60;;;5.30;;
82938;SDS011;72714;52.744;4.900;2023-09-18T06:58:45;10.40;;;5.47;;
82938;SDS011;72714;52.744;4.900;2023-09-18T07:01:13;7.43;;;5.00;;
82938;SDS011;72714;52.744;4.900;2023-09-18T07:03:40;9.27;;;5.63;;
82938;SDS011;72714;52.744;4.900;2023-09-18T07:06:05;9.97;;;6.00;;
82938;SDS011;72714;52.744;4.900;2023-09-18T07:08:31;12.47;;;7.53;;
82938;SDS011;72714;52.744;4.900;2023-09-18T07:10:57;13.20;;;8.25;;
82938;SDS011;72714;52.744;4.900;2023-09-18T07:13:23;13.38;;;8.50;;
82938;SDS011;72714;52.744;4.900;2023-09-18T07:15:49;14.55;;;9.02;;
82938;SDS011;72714;52.744;4.900;2023-09-18T07:18:14;11.33;;;7.97;;
82938;SDS011;72714;52.744;4.900;2023-09-18T07:20:40;12.27;;;9.10;;
82938;SDS011;72714;52.744;4.900;2023-09-18T07:23:06;12.88;;;8.70;;
82938;SDS011;72714;52.744;4.900;2023-09-18T07:25:32;12.95;;;8.82;;
82938;SDS011;72714;52.744;4.900;2023-09-18T07:27:57;12.97;;;9.13;;
82938;SDS011;72714;52.744;4.900;2023-09-18T07:30:23;14.10;;;9.23;;
82938;SDS011;72714;52.744;4.900;2023-09-18T07:32:52;13.88;;;9.63;;
82938;SDS011;72714;52.744;4.900;2023-09-18T07:35:21;13.77;;;8.98;;
82938;SDS011;72714;52.744;4.900;2023-09-18T07:37:47;13.57;;;8.32;;
82938;SDS011;72714;52.744;4.900;2023-09-18T07:40:13;13.23;;;8.43;;
82938;SDS011;72714;52.744;4.900;2023-09-18T07:42:39;13.10;;;9.13;;
82938;SDS011;72714;52.744;4.900;2023-09-18T07:45:04;12.77;;;8.70;;
82938;SDS011;72714;52.744;4.900;2023-09-18T07:47:30;14.05;;;8.38;;
82938;SDS011;72714;52.744;4.900;2023-09-18T07:49:56;11.32;;;8.30;;
82938;SDS011;72714;52.744;4.900;2023-09-18T07:52:22;14.20;;;9.15;;
82938;SDS011;72714;52.744;4.900;2023-09-18T07:54:47;11.03;;;7.70;;
82938;SDS011;72714;52.744;4.900;2023-09-18T07:57:13;14.17;;;8.87;;
82938;SDS011;72714;52.744;4.900;2023-09-18T07:59:38;12.67;;;9.13;;
82938;SDS011;72714;52.744;4.900;2023-09-18T08:02:05;14.07;;;9.20;;
82938;SDS011;72714;52.744;4.900;2023-09-18T08:04:31;15.77;;;11.07;;
82938;SDS011;72714;52.744;4.900;2023-09-18T08:06:57;13.50;;;10.23;;
82938;SDS011;72714;52.744;4.900;2023-09-18T08:09:22;19.63;;;12.83;;
82938;SDS011;72714;52.744;4.900;2023-09-18T08:11:48;16.30;;;12.10;;
82938;SDS011;72714;52.744;4.900;2023-09-18T08:14:15;15.48;;;10.98;;
82938;SDS011;72714;52.744;4.900;2023-09-18T08:16:40;16.55;;;11.82;;
82938;SDS011;72714;52.744;4.900;2023-09-18T08:19:06;17.55;;;12.95;;
82938;SDS011;72714;52.744;4.900;2023-09-18T08:21:32;17.25;;;13.15;;
82938;SDS011;72714;52.744;4.900;2023-09-18T08:23:58;17.20;;;12.88;;
82938;SDS011;72714;52.744;4.900;2023-09-18T08:26:24;18.13;;;13.30;;
82938;SDS011;72714;52.744;4.900;2023-09-18T08:28:50;16.80;;;13.18;;
82938;SDS011;72714;52.744;4.900;2023-09-18T08:31:16;18.75;;;12.98;;
82938;SDS011;72714;52.744;4.900;2023-09-18T08:33:41;18.43;;;14.00;;
82938;SDS011;72714;52.744;4.900;2023-09-18T08:36:08;20.27;;;14.18;;
82938;SDS011;72714;52.744;4.900;2023-09-18T08:38:34;19.08;;;13.52;;
82938;SDS011;72714;52.744;4.900;2023-09-18T08:40:59;18.17;;;13.80;;
82938;SDS011;72714;52.744;4.900;2023-09-18T08:43:25;16.23;;;13.15;;
82938;SDS011;72714;52.744;4.900;2023-09-18T08:45:51;17.48;;;13.20;;
82938;SDS011;72714;52.744;4.900;2023-09-18T08:48:18;18.70;;;13.15;;
82938;SDS011;72714;52.744;4.900;2023-09-18T08:50:45;15.80;;;11.93;;
82938;SDS011;72714;52.744;4.900;2023-09-18T08:53:11;12.57;;;9.97;;
82938;SDS011;72714;52.744;4.900;2023-09-18T08:55:36;16.97;;;10.33;;
82938;SDS011;72714;52.744;4.900;2023-09-18T08:58:02;14.70;;;8.93;;
82938;SDS011;72714;52.744;4.900;2023-09-18T09:00:27;13.68;;;8.07;;
82938;SDS011;72714;52.744;4.900;2023-09-18T09:02:53;14.47;;;6.80;;
82938;SDS011;72714;52.744;4.900;2023-09-18T09:05:22;10.77;;;4.90;;
82938;SDS011;72714;52.744;4.900;2023-09-18T09:07:48;12.40;;;4.82;;
82938;SDS011;72714;52.744;4.900;2023-09-18T09:10:14;10.85;;;4.85;;
82938;SDS011;72714;52.744;4.900;2023-09-18T09:15:15;9.77;;;3.93;;
82938;SDS011;72714;52.744;4.900;2023-09-18T09:17:42;9.40;;;3.72;;
82938;SDS011;72714;52.744;4.900;2023-09-18T09:20:11;11.30;;;4.30;;
82938;SDS011;72714;52.744;4.900;2023-09-18T09:22:38;10.05;;;4.30;;
82938;SDS011;72714;52.744;4.900;2023-09-18T09:25:27;10.85;;;5.10;;
82938;SDS011;72714;52.744;4.900;2023-09-18T09:27:53;10.73;;;5.55;;
82938;SDS011;72714;52.744;4.900;2023-09-18T09:30:29;9.27;;;5.13;;
82938;SDS011;72714;52.744;4.900;2023-09-18T09:32:55;13.50;;;5.25;;
82938;SDS011;72714;52.744;4.900;2023-09-18T09:35:22;12.27;;;4.70;;
82938;SDS011;72714;52.744;4.900;2023-09-18T09:38:07;9.85;;;4.32;;
82938;SDS011;72714;52.744;4.900;2023-09-18T09:40:40;10.93;;;4.43;;
82938;SDS011;72714;52.744;4.900;2023-09-18T09:43:07;9.05;;;3.85;;
82938;SDS011;72714;52.744;4.900;2023-09-18T09:45:34;10.13;;;3.80;;
82938;SDS011;72714;52.744;4.900;2023-09-18T09:48:03;10.67;;;4.03;;
82938;SDS011;72714;52.744;4.900;2023-09-18T09:50:30;10.98;;;3.45;;
82938;SDS011;72714;52.744;4.900;2023-09-18T09:52:57;10.05;;;3.50;;
82938;SDS011;72714;52.744;4.900;2023-09-18T09:55:33;10.60;;;3.60;;
82938;SDS011;72714;52.744;4.900;2023-09-18T10:00:32;9.27;;;3.33;;
82938;SDS011;72714;52.744;4.900;2023-09-18T10:03:06;10.73;;;3.58;;
82938;SDS011;72714;52.744;4.900;2023-09-18T10:05:41;9.07;;;3.40;;
82938;SDS011;72714;52.744;4.900;2023-09-18T10:08:14;9.93;;;3.70;;
82938;SDS011;72714;52.744;4.900;2023-09-18T10:10:48;10.02;;;3.63;;
82938;SDS011;72714;52.744;4.900;2023-09-18T10:15:47;10.68;;;3.50;;
82938;SDS011;72714;52.744;4.900;2023-09-18T10:18:26;10.77;;;3.70;;
82938;SDS011;72714;52.744;4.900;2023-09-18T10:21:22;11.55;;;3.67;;
82938;SDS011;72714;52.744;4.900;2023-09-18T10:23:59;13.52;;;3.60;;
82938;SDS011;72714;52.744;4.900;2023-09-18T10:26:29;11.67;;;3.77;;
82938;SDS011;72714;52.744;4.900;2023-09-18T10:28:58;9.63;;;3.77;;
82938;SDS011;72714;52.744;4.900;2023-09-18T10:31:28;11.68;;;4.43;;
82938;SDS011;72714;52.744;4.900;2023-09-18T10:33:55;9.07;;;4.20;;
82938;SDS011;72714;52.744;4.900;2023-09-18T10:36:22;10.82;;;4.53;;
82938;SDS011;72714;52.744;4.900;2023-09-18T10:38:49;11.43;;;5.10;;
82938;SDS011;72714;52.744;4.900;2023-09-18T10:41:17;10.90;;;5.00;;
82938;SDS011;72714;52.744;4.900;2023-09-18T10:43:45;10.38;;;5.30;;
82938;SDS011;72714;52.744;4.900;2023-09-18T10:46:12;11.88;;;5.40;;
82938;SDS011;72714;52.744;4.900;2023-09-18T10:48:39;10.55;;;4.93;;
82938;SDS011;72714;52.744;4.900;2023-09-18T10:51:06;11.30;;;5.70;;
82938;SDS011;72714;52.744;4.900;2023-09-18T10:53:32;11.13;;;5.10;;
82938;SDS011;72714;52.744;4.900;2023-09-18T10:56:01;11.45;;;5.00;;
82938;SDS011;72714;52.744;4.900;2023-09-18T10:58:29;10.55;;;4.93;;
82938;SDS011;72714;52.744;4.900;2023-09-18T11:00:59;11.30;;;4.63;;
82938;SDS011;72714;52.744;4.900;2023-09-18T11:03:24;12.00;;;4.88;;
82938;SDS011;72714;52.744;4.900;2023-09-18T11:06:01;11.27;;;4.80;;
82938;SDS011;72714;52.744;4.900;2023-09-18T11:11:07;11.93;;;4.50;;
82938;SDS011;72714;52.744;4.900;2023-09-18T11:13:46;10.40;;;4.65;;
82938;SDS011;72714;52.744;4.900;2023-09-18T11:16:13;9.50;;;4.50;;
82938;SDS011;72714;52.744;4.900;2023-09-18T11:18:51;10.73;;;4.20;;
82938;SDS011;72714;52.744;4.900;2023-09-18T11:21:26;10.82;;;4.30;;
82938;SDS011;72714;52.744;4.900;2023-09-18T11:26:36;7.72;;;4.40;;
82938;SDS011;72714;52.744;4.900;2023-09-18T11:29:15;11.70;;;4.75;;
82938;SDS011;72714;52.744;4.900;2023-09-18T11:31:56;9.40;;;4.32;;
82938;SDS011;72714;52.744;4.900;2023-09-18T11:34:23;9.93;;;4.57;;
82938;SDS011;72714;52.744;4.900;2023-09-18T11:37:22;10.52;;;4.53;;
82938;SDS011;72714;52.744;4.900;2023-09-18T11:39:50;10.43;;;4.75;;
82938;SDS011;72714;52.744;4.900;2023-09-18T11:42:20;11.15;;;4.07;;
82938;SDS011;72714;52.744;4.900;2023-09-18T11:44:54;9.37;;;4.00;;
82938;SDS011;72714;52.744;4.900;2023-09-18T11:47:23;9.37;;;3.90;;
82938;SDS011;72714;52.744;4.900;2023-09-18T11:52:27;9.30;;;3.50;;
82938;SDS011;72714;52.744;4.900;2023-09-18T11:54:58;8.80;;;3.47;;
82938;SDS011;72714;52.744;4.900;2023-09-18T11:57:25;8.80;;;3.40;;
82938;SDS011;72714;52.744;4.900;2023-09-18T11:59:51;9.00;;;3.58;;
82938;SDS011;72714;52.744;4.900;2023-09-18T12:02:30;10.60;;;3.45;;
82938;SDS011;72714;52.744;4.900;2023-09-18T12:05:27;9.90;;;3.43;;
82938;SDS011;72714;52.744;4.900;2023-09-18T12:07:52;10.48;;;3.10;;
82938;SDS011;72714;52.744;4.900;2023-09-18T12:10:20;8.00;;;3.07;;
82938;SDS011;72714;52.744;4.900;2023-09-18T12:12:46;12.00;;;3.60;;
82938;SDS011;72714;52.744;4.900;2023-09-18T12:15:17;8.52;;;3.05;;
82938;SDS011;72714;52.744;4.900;2023-09-18T12:17:43;7.43;;;2.97;;
82938;SDS011;72714;52.744;4.900;2023-09-18T12:20:15;8.20;;;3.37;;
82938;SDS011;72714;52.744;4.900;2023-09-18T12:22:46;8.57;;;3.13;;
82938;SDS011;72714;52.744;4.900;2023-09-18T12:25:13;7.72;;;3.17;;
82938;SDS011;72714;52.744;4.900;2023-09-18T12:27:43;8.43;;;3.13;;
82938;SDS011;72714;52.744;4.900;2023-09-18T12:30:09;9.33;;;3.13;;
82938;SDS011;72714;52.744;4.900;2023-09-18T12:32:36;7.60;;;3.15;;
82938;SDS011;72714;52.744;4.900;2023-09-18T12:35:02;7.95;;;2.95;;
82938;SDS011;72714;52.744;4.900;2023-09-18T12:37:32;10.65;;;3.20;;
82938;SDS011;72714;52.744;4.900;2023-09-18T12:40:04;8.63;;;2.80;;
82938;SDS011;72714;52.744;4.900;2023-09-18T12:42:38;8.25;;;2.90;;
82938;SDS011;72714;52.744;4.900;2023-09-18T12:45:06;7.53;;;3.03;;
82938;SDS011;72714;52.744;4.900;2023-09-18T12:47:33;9.50;;;3.17;;
82938;SDS011;72714;52.744;4.900;2023-09-18T12:50:05;12.05;;;3.15;;
82938;SDS011;72714;52.744;4.900;2023-09-18T12:52:32;8.88;;;3.10;;
82938;SDS011;72714;52.744;4.900;2023-09-18T12:55:00;6.80;;;3.10;;
82938;SDS011;72714;52.744;4.900;2023-09-18T12:57:27;8.60;;;3.37;;
82938;SDS011;72714;52.744;4.900;2023-09-18T12:59:53;8.55;;;3.47;;
82938;SDS011;72714;52.744;4.900;2023-09-18T13:02:20;7.65;;;3.20;;
82938;SDS011;72714;52.744;4.900;2023-09-18T13:04:55;9.93;;;3.33;;
82938;SDS011;72714;52.744;4.900;2023-09-18T13:07:24;7.53;;;2.97;;
82938;SDS011;72714;52.744;4.900;2023-09-18T13:09:58;7.38;;;2.90;;
82938;SDS011;72714;52.744;4.900;2023-09-18T13:12:41;8.70;;;3.45;;
82938;SDS011;72714;52.744;4.900;2023-09-18T13:15:30;9.63;;;3.08;;
82938;SDS011;72714;52.744;4.900;2023-09-18T13:17:58;7.80;;;2.97;;
82938;SDS011;72714;52.744;4.900;2023-09-18T13:20:28;8.00;;;3.37;;
82938;SDS011;72714;52.744;4.900;2023-09-18T13:22:55;7.40;;;3.20;;
82938;SDS011;72714;52.744;4.900;2023-09-18T13:25:22;7.32;;;2.90;;
82938;SDS011;72714;52.744;4.900;2023-09-18T13:27:51;8.23;;;2.72;;
82938;SDS011;72714;52.744;4.900;2023-09-18T13:30:20;8.75;;;3.00;;
82938;SDS011;72714;52.744;4.900;2023-09-18T13:32:49;7.43;;;3.00;;
82938;SDS011;72714;52.744;4.900;2023-09-18T13:35:25;7.05;;;2.90;;
82938;SDS011;72714;52.744;4.900;2023-09-18T13:37:50;7.00;;;2.73;;
82938;SDS011;72714;52.744;4.900;2023-09-18T13:40:16;7.72;;;2.92;;
82938;SDS011;72714;52.744;4.900;2023-09-18T13:42:46;6.68;;;2.80;;
82938;SDS011;72714;52.744;4.900;2023-09-18T13:45:14;7.88;;;3.00;;
82938;SDS011;72714;52.744;4.900;2023-09-18T13:47:41;7.47;;;2.87;;
82938;SDS011;72714;52.744;4.900;2023-09-18T13:50:07;5.93;;;2.90;;
82938;SDS011;72714;52.744;4.900;2023-09-18T13:52:33;6.13;;;2.85;;
82938;SDS011;72714;52.744;4.900;2023-09-18T13:55:03;8.10;;;3.20;;
82938;SDS011;72714;52.744;4.900;2023-09-18T13:57:32;5.37;;;2.97;;
82938;SDS011;72714;52.744;4.900;2023-09-18T13:59:59;6.68;;;2.90;;
82938;SDS011;72714;52.744;4.900;2023-09-18T14:02:25;5.40;;;2.97;;
82938;SDS011;72714;52.744;4.900;2023-09-18T14:04:54;5.50;;;3.10;;
82938;SDS011;72714;52.744;4.900;2023-09-18T14:07:20;5.47;;;3.03;;
82938;SDS011;72714;52.744;4.900;2023-09-18T14:09:45;5.55;;;2.72;;
82938;SDS011;72714;52.744;4.900;2023-09-18T14:12:11;5.15;;;2.50;;
82938;SDS011;72714;52.744;4.900;2023-09-18T14:14:37;6.13;;;2.53;;
82938;SDS011;72714;52.744;4.900;2023-09-18T14:17:05;5.78;;;2.65;;
82938;SDS011;72714;52.744;4.900;2023-09-18T14:19:34;5.05;;;2.70;;
82938;SDS011;72714;52.744;4.900;2023-09-18T14:22:00;5.25;;;2.60;;
82938;SDS011;72714;52.744;4.900;2023-09-18T14:24:29;5.83;;;3.00;;
82938;SDS011;72714;52.744;4.900;2023-09-18T14:26:57;5.63;;;3.42;;
82938;SDS011;72714;52.744;4.900;2023-09-18T14:29:24;6.43;;;3.10;;
82938;SDS011;72714;52.744;4.900;2023-09-18T14:31:49;5.65;;;3.70;;
82938;SDS011;72714;52.744;4.900;2023-09-18T14:34:20;8.07;;;4.17;;
82938;SDS011;72714;52.744;4.900;2023-09-18T14:36:45;7.60;;;4.40;;
82938;SDS011;72714;52.744;4.900;2023-09-18T14:39:13;7.85;;;4.50;;
82938;SDS011;72714;52.744;4.900;2023-09-18T14:41:39;7.73;;;5.00;;
82938;SDS011;72714;52.744;4.900;2023-09-18T14:44:06;7.50;;;4.37;;
82938;SDS011;72714;52.744;4.900;2023-09-18T14:46:35;7.73;;;5.03;;
82938;SDS011;72714;52.744;4.900;2023-09-18T14:49:02;6.65;;;4.25;;
82938;SDS011;72714;52.744;4.900;2023-09-18T14:51:28;9.40;;;5.45;;
82938;SDS011;72714;52.744;4.900;2023-09-18T14:53:57;7.18;;;4.95;;
82938;SDS011;72714;52.744;4.900;2023-09-18T14:56:23;7.67;;;5.10;;